Singersville, Pennsylvania
Current Conditions -  °F | °C
As of 9:56 PM on Saturday 25 Oct 2014 (Local Time) from KCXY Reporting Station
Clear Clear  
Wind Chill: 62°   Ceiling: Unl
Heat Index: 62°   Visibility: 10mi
Dew Point: 47°   Wind: 5mph
Humidity: 58%   Direction: 250°WSW
Pressure: 29.65"   Gusts: NA
Location:  40.4076°N, 76.8769°W
Report Text: KCXY 260156Z AUTO 25004KT 10SM CLR 17/08 A2965 RMK AO2 SLP041 T01670083
Loading
Personal Weather Stations






























Interactive Weather Map
Tropical Storm Tracking
New forecast layout! Learn more

10-Day Weather Forecast

Advertisements
Track Severe Weather on mobile